createdAt,value
2022-07-26T20:14:19.677Z,27.80
2022-07-26T20:14:53.898Z,28.00
2022-07-26T20:15:29.293Z,27.90
2022-07-26T20:16:06.021Z,27.90
2022-07-26T20:16:41.939Z,27.90
2022-07-26T20:17:17.983Z,27.90
2022-07-26T20:17:51.718Z,27.90
2022-07-26T20:18:27.919Z,27.80
2022-07-26T20:19:01.574Z,27.80
2022-07-26T20:19:35.549Z,27.80
2022-07-26T20:20:11.380Z,27.80
2022-07-26T20:20:47.132Z,27.70
2022-07-26T20:21:22.947Z,27.70
2022-07-26T20:21:57.081Z,27.70
2022-07-26T20:22:32.365Z,27.70
2022-07-26T20:23:08.436Z,27.70
2022-07-26T20:23:44.983Z,27.70
2022-07-26T20:24:19.639Z,27.70
2022-07-26T20:24:56.921Z,27.70
2022-07-26T20:25:32.216Z,27.60
2022-07-26T20:26:06.206Z,27.60
2022-07-26T20:26:41.715Z,27.50
2022-07-26T20:27:16.046Z,27.50
2022-07-26T20:29:01.463Z,27.40
2022-07-26T20:30:49.159Z,27.30
2022-07-26T20:31:27.078Z,27.20
2022-07-26T20:32:01.008Z,27.10
2022-07-26T20:32:37.775Z,27.10
2022-07-26T20:33:12.269Z,27.10
2022-07-26T20:33:47.027Z,27.10
2022-07-26T20:34:21.519Z,27.10
2022-07-26T20:34:55.338Z,27.00
2022-07-26T20:35:31.308Z,27.00
2022-07-26T20:36:05.835Z,27.00
2022-07-26T20:36:42.145Z,27.00
2022-07-26T20:37:16.031Z,27.00
2022-07-26T20:37:50.825Z,27.00
2022-07-26T20:38:25.236Z,27.10
2022-07-26T20:39:00.502Z,27.10
2022-07-26T20:39:36.620Z,27.10
2022-07-26T20:40:12.917Z,27.10
2022-07-26T20:40:49.803Z,27.20
2022-07-26T20:41:24.368Z,27.10
2022-07-26T20:41:59.038Z,27.10
2022-07-26T20:42:38.346Z,27.10
2022-07-26T20:43:18.175Z,27.10
2022-07-26T20:43:52.471Z,27.10
2022-07-26T20:44:28.684Z,27.00
2022-07-26T20:45:01.983Z,27.00
2022-07-26T20:45:37.549Z,27.00
2022-07-26T20:46:12.193Z,27.00
2022-07-26T20:46:49.128Z,26.90
2022-07-26T20:47:23.032Z,26.90
2022-07-26T20:47:58.743Z,26.90
2022-07-26T20:48:34.161Z,26.90
2022-07-26T20:49:08.286Z,26.90
2022-07-26T20:49:44.105Z,26.90
2022-07-26T20:50:16.737Z,26.90
2022-07-26T20:50:52.147Z,27.00
2022-07-26T20:51:28.046Z,27.00
2022-07-26T20:52:04.782Z,27.00
2022-07-26T20:52:39.762Z,27.00
2022-07-26T20:53:14.502Z,26.90
2022-07-26T20:53:49.838Z,26.90
2022-07-26T20:54:23.873Z,26.90
2022-07-26T20:54:58.794Z,26.90
2022-07-26T20:55:33.085Z,26.90
2022-07-26T20:56:10.900Z,26.90
2022-07-26T20:56:45.324Z,27.00
2022-07-26T20:57:23.341Z,27.00
2022-07-26T20:57:58.220Z,27.00
2022-07-26T20:58:32.693Z,27.00
2022-07-26T20:59:08.808Z,27.00
2022-07-26T20:59:44.104Z,27.00
2022-07-26T21:00:21.156Z,27.10
2022-07-26T21:00:58.232Z,27.10
2022-07-26T21:01:32.299Z,27.10
2022-07-26T21:02:10.294Z,27.00
2022-07-26T21:02:46.015Z,27.10
2022-07-26T21:03:20.781Z,27.00
2022-07-26T21:03:56.341Z,27.00
2022-07-26T21:04:30.734Z,27.00
2022-07-26T21:05:06.260Z,27.00
2022-07-26T21:05:42.477Z,26.90
2022-07-26T21:06:17.045Z,26.90
2022-07-26T21:06:51.842Z,26.90
2022-07-26T21:07:56.546Z,26.90
2022-07-26T21:08:23.768Z,26.90
2022-07-26T21:08:58.784Z,26.90
2022-07-26T21:09:33.264Z,26.90
2022-07-26T21:10:11.289Z,26.90
2022-07-26T21:10:46.649Z,26.90
2022-07-26T21:11:23.940Z,26.90
2022-07-26T21:11:57.850Z,27.00
2022-07-26T21:12:32.786Z,27.00
2022-07-26T21:13:07.069Z,27.00
2022-07-26T21:13:41.367Z,27.00
2022-07-26T21:15:10.850Z,27.00
2022-07-26T21:15:55.263Z,27.00
2022-07-26T21:16:29.955Z,27.00
2022-07-26T21:17:06.620Z,27.00
2022-07-26T21:17:46.294Z,27.00
2022-07-26T21:18:20.167Z,27.00
2022-07-26T21:18:54.773Z,26.90
2022-07-26T21:19:29.267Z,26.90
2022-07-26T21:20:03.376Z,26.90
2022-07-26T21:20:38.114Z,26.90
2022-07-26T21:21:13.306Z,26.90
2022-07-26T21:21:47.452Z,26.90
2022-07-26T21:22:21.828Z,26.80
2022-07-26T21:23:08.040Z,26.80
2022-07-26T21:23:50.604Z,26.80
2022-07-26T21:24:25.427Z,26.80
2022-07-26T21:24:59.786Z,26.80
2022-07-26T21:25:32.950Z,26.80
2022-07-26T21:26:07.766Z,26.80
2022-07-26T21:26:41.364Z,26.80
2022-07-26T21:27:14.855Z,26.80
2022-07-26T21:27:49.746Z,26.80
2022-07-26T21:28:24.201Z,26.80
2022-07-26T21:28:58.484Z,26.80
2022-07-26T21:29:39.428Z,26.80
2022-07-26T21:30:15.282Z,26.80
2022-07-26T21:30:48.373Z,26.80
2022-07-26T21:31:23.652Z,26.80
2022-07-26T21:31:57.351Z,26.70
2022-07-26T21:32:31.978Z,26.80
2022-07-26T21:33:08.751Z,26.80
2022-07-26T21:33:44.770Z,26.80
2022-07-26T21:34:19.017Z,26.80
2022-07-26T21:34:53.167Z,26.70
2022-07-26T21:35:27.645Z,26.70
2022-07-26T21:36:01.466Z,26.70
2022-07-26T21:36:34.804Z,26.70
2022-07-26T21:37:09.623Z,26.70
2022-07-26T21:37:46.315Z,26.70
2022-07-26T21:38:21.824Z,26.70
2022-07-26T21:38:55.517Z,26.70
2022-07-26T21:39:30.690Z,26.70
2022-07-26T21:40:05.814Z,26.70
2022-07-26T21:40:38.977Z,26.60
2022-07-26T21:41:14.349Z,26.60
2022-07-26T21:41:49.603Z,26.60
2022-07-26T21:42:22.280Z,26.60
2022-07-26T21:43:02.133Z,26.70
2022-07-26T21:43:36.225Z,26.60
2022-07-26T21:44:10.366Z,26.70
2022-07-26T21:44:44.502Z,26.70
2022-07-26T21:45:20.371Z,26.60
2022-07-26T21:45:55.117Z,26.70
2022-07-26T21:46:31.409Z,26.60
2022-07-26T21:47:06.704Z,26.70
2022-07-26T21:47:42.626Z,26.70
2022-07-26T21:48:17.771Z,26.70
2022-07-26T21:48:53.032Z,26.70
2022-07-26T21:49:28.603Z,26.70
2022-07-26T21:50:02.239Z,26.60
2022-07-26T21:50:37.775Z,26.60
2022-07-26T21:51:11.199Z,26.70
2022-07-26T21:51:44.782Z,26.70
2022-07-26T21:52:19.052Z,26.60
2022-07-26T21:52:52.786Z,26.70
2022-07-26T21:53:27.980Z,26.60
2022-07-26T21:54:01.938Z,26.70
2022-07-26T21:54:36.404Z,26.70
2022-07-26T21:55:17.719Z,26.60
2022-07-26T21:55:51.396Z,26.70
2022-07-26T21:56:25.982Z,26.60
2022-07-26T21:57:02.899Z,26.60
2022-07-26T21:57:37.363Z,26.60
2022-07-26T21:58:10.905Z,26.70
2022-07-26T21:58:46.895Z,26.70
2022-07-26T21:59:23.290Z,26.70
2022-07-26T21:59:56.437Z,26.70
2022-07-26T22:00:31.025Z,26.70
2022-07-26T22:01:06.934Z,26.70
2022-07-26T22:01:43.083Z,26.70
2022-07-26T22:02:20.174Z,26.70
2022-07-26T22:02:55.727Z,26.70
2022-07-26T22:03:33.078Z,26.70
2022-07-26T22:04:07.302Z,26.70
2022-07-26T22:04:42.039Z,26.70
2022-07-26T22:05:38.668Z,26.70
2022-07-26T22:06:11.731Z,26.70
2022-07-26T22:06:47.859Z,26.60
2022-07-26T22:07:22.443Z,26.50
2022-07-26T22:07:56.209Z,26.50
2022-07-26T22:08:32.365Z,26.50
2022-07-26T22:09:06.152Z,26.50
2022-07-26T22:09:40.916Z,26.40
2022-07-26T22:10:14.079Z,26.40
2022-07-26T22:10:48.341Z,26.40
2022-07-26T22:11:24.847Z,26.30
2022-07-26T22:11:59.316Z,26.30
2022-07-26T22:12:33.585Z,26.30
2022-07-26T22:13:08.628Z,26.20
2022-07-26T22:13:43.322Z,26.20
2022-07-26T22:14:17.433Z,26.20
2022-07-26T22:14:54.120Z,26.20
2022-07-26T22:15:28.135Z,26.10
2022-07-26T22:16:04.095Z,26.20
2022-07-26T22:16:37.755Z,26.10
2022-07-26T22:17:13.747Z,26.10
2022-07-26T22:17:49.092Z,26.00
2022-07-26T22:18:22.893Z,26.00
2022-07-26T22:18:59.652Z,26.00
2022-07-26T22:19:37.149Z,26.00
2022-07-26T22:20:11.846Z,26.00
2022-07-26T22:20:47.573Z,26.00
2022-07-26T22:21:22.266Z,25.90
2022-07-26T22:21:57.764Z,25.90
2022-07-26T22:22:31.576Z,25.90
2022-07-26T22:23:07.952Z,25.90
2022-07-26T22:23:42.759Z,25.90
2022-07-26T22:24:17.268Z,25.80
2022-07-26T22:24:52.301Z,25.80
2022-07-26T22:25:26.756Z,25.80
2022-07-26T22:26:02.776Z,25.80
2022-07-26T22:26:37.928Z,25.80
2022-07-26T22:27:12.000Z,25.80
2022-07-26T22:27:46.073Z,25.70
2022-07-26T22:28:20.082Z,25.70
2022-07-26T22:28:53.915Z,25.70
2022-07-26T22:29:28.113Z,25.70
2022-07-26T22:30:18.502Z,25.70
2022-07-26T22:30:51.735Z,25.70
2022-07-26T23:40:14.387Z,24.90
2022-07-26T23:40:48.874Z,25.00
2022-07-26T23:41:23.833Z,25.00
2022-07-26T23:41:57.241Z,25.00
2022-07-26T23:42:32.250Z,25.00
2022-07-26T23:43:06.453Z,25.00
2022-07-26T23:43:40.993Z,25.00
2022-07-26T23:44:16.437Z,25.00
2022-07-26T23:44:50.359Z,25.00
2022-07-26T23:45:24.277Z,25.00
2022-07-26T23:45:58.868Z,24.90
2022-07-26T23:46:32.706Z,24.90
2022-07-26T23:47:08.447Z,24.90
2022-07-26T23:47:42.457Z,24.90
2022-07-26T23:48:16.164Z,24.90
2022-07-26T23:48:50.014Z,24.90
2022-07-26T23:49:25.687Z,24.90
2022-07-26T23:49:59.963Z,24.90
2022-07-26T23:50:34.538Z,24.90
2022-07-26T23:51:09.048Z,24.90
2022-07-26T23:51:42.300Z,24.90
2022-07-26T23:52:16.849Z,24.90
2022-07-26T23:52:51.463Z,24.90
2022-07-26T23:53:26.739Z,24.90
2022-07-26T23:54:01.362Z,24.90
2022-07-26T23:54:33.965Z,24.90
2022-07-26T23:55:09.966Z,24.90
2022-07-26T23:55:45.030Z,24.90
2022-07-26T23:56:23.002Z,24.90
2022-07-26T23:56:58.012Z,24.90
2022-07-26T23:57:31.072Z,24.90
2022-07-26T23:58:05.628Z,24.90
2022-07-26T23:58:47.480Z,24.90
2022-07-26T23:59:22.122Z,24.90
2022-07-26T23:59:57.899Z,24.90
